Time;durP1;ratioP1;P1;durP2;ratioP2;P2;SDS_P1;SDS_P2;PMS_P1;PMS_P2;Temp;Humidity;BMP_temperature;BMP_pressure;BME280_temperature;BME280_humidity;BME280_pressure;Samples;Min_cycle;Max_cycle;Signal;HPM_P1;HPM_P2
2021/01/28 00:00:19;;;;;;;;;;;13.70;99.90;;;13.09;100.00;101649.59;5052565;28;19978;-63
2021/01/28 00:02:46;;;;;;;;;;;13.60;99.90;;;13.09;100.00;101652.28;5052179;28;19925;-62
2021/01/28 00:05:15;;;;;;;;;;;13.70;99.90;;;13.02;100.00;101650.97;5052223;28;20301;-62
2021/01/28 00:07:42;;;;;;;;;;;13.60;99.90;;;12.96;100.00;101642.06;5052000;28;19932;-63
2021/01/28 00:10:11;;;;;;;;;;;13.50;99.90;;;12.86;100.00;101647.56;5052529;28;20362;-63
2021/01/28 00:12:38;;;;;;;;;;;13.50;99.90;;;12.78;100.00;101644.66;5051871;28;19925;-62
2021/01/28 00:15:07;;;;;;;;;;;13.40;99.90;;;12.74;100.00;101639.00;5052173;28;19925;-63
2021/01/28 00:17:34;;;;;;;;;;;13.30;99.90;;;12.77;100.00;101643.03;5051688;28;19924;-63
2021/01/28 00:20:01;;;;;;;;;;;13.30;99.90;;;12.71;100.00;101647.69;5052606;28;19924;-63
2021/01/28 00:22:30;;;;;;;;;;;13.30;99.90;;;12.69;100.00;101647.19;5052064;28;19924;-63
2021/01/28 00:24:57;;;;;;;;;;;13.20;99.90;;;12.69;100.00;101647.19;5052095;28;19975;-63
2021/01/28 00:27:24;;;;;;;;;;;13.20;99.90;;;12.70;100.00;101648.81;5051818;28;19931;-63
2021/01/28 00:29:51;;;;;;;;;;;13.20;99.90;;;12.69;100.00;101652.59;5052326;28;19955;-63
2021/01/28 00:32:18;;;;;;;;;;;13.30;99.90;;;12.63;100.00;101659.16;5051382;28;19925;-63
2021/01/28 00:34:46;;;;;;;;;;;13.20;99.90;;;12.59;100.00;101664.34;5051817;28;19929;-64
2021/01/28 00:37:13;;;;;;;;;;;13.20;99.90;;;12.56;100.00;101658.66;5051715;28;20387;-63
2021/01/28 00:39:41;;;;;;;;;;;13.20;99.90;;;12.57;100.00;101663.81;5052036;28;19929;-64
2021/01/28 00:42:08;;;;;;;;;;;13.20;99.90;;;12.58;100.00;101665.44;5052082;28;19925;-63
2021/01/28 00:44:35;;;;;;;;;;;13.10;99.90;;;12.61;100.00;101664.88;5051628;28;20003;-63
2021/01/28 00:47:03;;;;;;;;;;;13.20;99.90;;;12.60;100.00;101657.03;5051846;28;20470;-63
2021/01/28 00:49:30;;;;;;;;;;;13.20;99.90;;;12.59;100.00;101641.81;5052078;28;19925;-62
2021/01/28 00:51:57;;;;;;;;;;;13.20;99.90;;;12.54;100.00;101645.41;5051785;28;20440;-62
2021/01/28 00:54:24;;;;;;;;;;;13.20;99.90;;;12.56;100.00;101645.91;5051534;28;19932;-63
2021/01/28 00:56:52;;;;;;;;;;;13.20;99.90;;;12.53;100.00;101635.63;5051498;28;19929;-63
2021/01/28 00:59:19;;;;;;;;;;;13.20;99.90;;;12.47;100.00;101636.75;5052015;28;20302;-63
2021/01/28 01:01:47;;;;;;;;;;;13.10;99.90;;;12.44;100.00;101639.22;5051721;28;19982;-63
2021/01/28 01:04:14;;;;;;;;;;;13.10;99.90;;;12.47;100.00;101636.75;5051589;28;20274;-63
2021/01/28 01:06:41;;;;;;;;;;;13.10;99.90;;;12.47;100.00;101636.75;5051199;28;20059;-63
2021/01/28 01:09:08;;;;;;;;;;;13.10;99.90;;;12.47;100.00;101639.47;5052057;28;19929;-63
2021/01/28 01:11:35;;;;;;;;;;;13.10;99.90;;;12.50;100.00;101635.38;5051550;28;19924;-64
2021/01/28 01:14:04;;;;;;;;;;;13.10;99.90;;;12.46;100.00;101632.41;5051577;28;20374;-63
2021/01/28 01:16:31;;;;;;;;;;;13.10;99.90;;;12.47;100.00;101633.22;5051406;28;19932;-63
2021/01/28 01:18:58;;;;;;;;;;;13.10;99.90;;;12.43;100.00;101635.69;5051843;28;19924;-63
2021/01/28 01:21:25;;;;;;;;;;;13.10;99.90;;;12.44;100.00;101634.63;5051659;28;20287;-63
2021/01/28 01:23:52;;;;;;;;;;;13.10;99.90;;;12.46;100.00;101626.22;5051356;28;20294;-63
2021/01/28 01:26:19;;;;;;;;;;;13.10;99.90;;;12.43;100.00;101632.97;5051267;28;20405;-63
2021/01/28 01:28:46;;;;;;;;;;;13.10;99.90;;;12.41;100.00;101645.22;5051783;28;19925;-64
2021/01/28 01:31:15;;;;;;;;;;;13.00;99.90;;;12.34;100.00;101642.03;5051648;28;19929;-62
2021/01/28 01:33:42;;;;;;;;;;;12.90;99.90;;;12.30;100.00;101639.06;5051094;28;19932;-63
2021/01/28 01:36:09;;;;;;;;;;;12.90;99.90;;;12.23;100.00;101638.56;5051166;28;19925;-64
2021/01/28 01:38:36;;;;;;;;;;;12.80;99.90;;;12.12;100.00;101630.75;5051689;28;19932;-62
2021/01/28 01:41:04;;;;;;;;;;;12.70;99.90;;;12.29;100.00;101631.19;5051817;28;19928;-63
2021/01/28 01:43:31;;;;;;;;;;;12.90;99.90;;;12.36;100.00;101642.53;5052898;28;19925;-63
2021/01/28 01:46:01;;;;;;;;;;;12.90;99.90;;;12.16;100.00;101639.97;5054775;28;19925;-62
2021/01/28 01:48:30;;;;;;;;;;;12.80;99.90;;;12.18;100.00;101646.72;5055112;28;19924;-63
2021/01/28 01:51:00;;;;;;;;;;;12.80;99.90;;;12.18;100.00;101635.06;5055249;28;19925;-63
2021/01/28 01:53:30;;;;;;;;;;;12.70;99.90;;;12.14;100.00;101628.56;5054720;28;19925;-63
2021/01/28 01:55:59;;;;;;;;;;;12.70;99.90;;;12.21;100.00;101640.75;5054885;28;20318;-63
2021/01/28 01:58:35;;;;;;;;;;;12.70;99.90;;;12.26;100.00;101640.69;5055090;28;20365;-62
2021/01/28 02:01:03;;;;;;;;;;;12.80;99.90;;;12.21;100.00;101632.59;5055001;28;20007;-63
2021/01/28 02:03:33;;;;;;;;;;;12.80;99.90;;;12.28;100.00;101640.44;5054522;28;19925;-62
2021/01/28 02:06:15;;;;;;;;;;;12.80;99.90;;;12.29;100.00;101633.91;5054479;28;20298;-64
2021/01/28 02:08:42;;;;;;;;;;;12.80;99.90;;;12.30;100.00;101621.97;5054834;28;19924;-63
2021/01/28 02:11:10;;;;;;;;;;;12.80;99.90;;;12.33;100.00;101616.00;5054642;28;19925;-63
2021/01/28 02:13:37;;;;;;;;;;;12.90;99.90;;;12.33;100.00;101624.13;5054205;28;19928;-62
2021/01/28 02:16:06;;;;;;;;;;;12.90;99.90;;;12.39;100.00;101620.28;5053950;28;19929;-63
2021/01/28 02:18:35;;;;;;;;;;;12.90;99.90;;;12.46;100.00;101637.84;5054683;28;19929;-62
2021/01/28 02:21:26;;;;;;;;;;;13.00;99.90;;;12.37;100.00;101649.59;5054549;28;19925;-63
2021/01/28 02:24:24;;;;;;;;;;;12.90;99.90;;;12.23;100.00;101640.44;5054172;28;19929;-63
2021/01/28 02:26:52;;;;;;;;;;;12.80;99.90;;;12.26;100.00;101639.88;5030879;28;19974;-62
2021/01/28 02:29:21;;;;;;;;;;;12.80;99.90;;;12.29;100.00;101642.84;5054618;28;20493;-63
2021/01/28 02:31:51;;;;;;;;;;;12.90;99.90;;;12.38;100.00;101648.50;5054168;28;19925;-63
2021/01/28 02:34:18;;;;;;;;;;;12.90;99.90;;;12.40;100.00;101643.63;5053742;28;20393;-63
2021/01/28 02:36:49;;;;;;;;;;;13.00;99.90;;;12.45;100.00;101651.69;5053611;28;19925;-63
2021/01/28 02:39:18;;;;;;;;;;;13.00;99.90;;;12.51;100.00;101647.88;5054367;28;19925;-63
2021/01/28 02:41:48;;;;;;;;;;;13.10;99.90;;;12.58;100.00;101637.50;5053962;28;19924;-62
2021/01/28 02:44:16;;;;;;;;;;;13.20;99.90;;;12.62;100.00;101638.53;5053718;28;19925;-62
2021/01/28 02:46:43;;;;;;;;;;;13.20;99.90;;;12.67;100.00;101643.13;5053144;28;19954;-64
2021/01/28 02:49:10;;;;;;;;;;;13.30;99.90;;;12.73;100.00;101642.00;5054111;28;19974;-62
2021/01/28 02:51:37;;;;;;;;;;;13.30;99.90;;;12.73;100.00;101629.25;5053731;28;19925;-65
2021/01/28 02:54:05;;;;;;;;;;;13.40;99.90;;;12.75;100.00;101632.47;5053467;28;19932;-63
2021/01/28 02:56:32;;;;;;;;;;;13.40;99.90;;;12.80;100.00;101629.72;5053196;28;19928;-63
2021/01/28 02:58:59;;;;;;;;;;;13.40;99.90;;;12.79;100.00;101630.81;5053897;28;19963;-63
2021/01/28 03:01:27;;;;;;;;;;;13.40;99.90;;;12.78;100.00;101628.38;5053838;28;19925;-63
2021/01/28 03:03:54;;;;;;;;;;;13.40;99.90;;;12.80;100.00;101621.56;5053247;28;19925;-62
2021/01/28 03:06:22;;;;;;;;;;;13.40;99.90;;;12.79;100.00;101625.41;5052870;28;19925;-62
2021/01/28 03:08:49;;;;;;;;;;;13.40;99.90;;;12.82;100.00;101619.41;5053631;28;20403;-63
2021/01/28 03:11:16;;;;;;;;;;;13.50;99.90;;;12.81;100.00;101620.47;5053528;28;19932;-65
2021/01/28 03:13:43;;;;;;;;;;;13.50;99.90;;;12.80;100.00;101616.13;5052885;28;19933;-63
2021/01/28 03:16:10;;;;;;;;;;;13.50;99.90;;;12.80;100.00;101605.28;5052964;28;19929;-63
2021/01/28 03:18:38;;;;;;;;;;;13.50;99.90;;;12.82;100.00;101597.69;5053354;28;19975;-63
2021/01/28 03:21:06;;;;;;;;;;;13.50;99.90;;;12.80;100.00;101599.84;5053336;28;19932;-63
2021/01/28 03:23:33;;;;;;;;;;;13.50;99.90;;;12.71;100.00;101601.56;5052825;28;20172;-63
2021/01/28 03:26:00;;;;;;;;;;;13.40;99.90;;;12.73;100.00;101607.53;5053221;28;19932;-62
2021/01/28 03:28:27;;;;;;;;;;;13.40;99.90;;;12.77;100.00;101592.28;5053042;28;19925;-63
2021/01/28 03:30:55;;;;;;;;;;;13.40;99.90;;;12.78;100.00;101593.09;5053359;28;19932;-62
2021/01/28 03:33:22;;;;;;;;;;;13.40;99.90;;;12.80;100.00;101586.28;5052474;28;19932;-63
2021/01/28 03:35:52;;;;;;;;;;;13.40;99.90;;;12.79;100.00;101584.69;5052688;28;19983;-63
2021/01/28 03:38:19;;;;;;;;;;;13.40;99.90;;;12.75;100.00;101580.09;5052656;28;20251;-63
2021/01/28 03:40:47;;;;;;;;;;;13.40;99.90;;;12.72;100.00;101580.66;5052772;28;19932;-62
2021/01/28 03:43:14;;;;;;;;;;;13.40;99.90;;;12.68;100.00;101569.56;5052688;28;20314;-62
2021/01/28 03:45:42;;;;;;;;;;;13.30;99.90;;;12.70;100.00;101566.59;5052452;28;19932;-63
2021/01/28 03:48:09;;;;;;;;;;;13.30;99.90;;;12.72;100.00;101570.63;5052560;28;19979;-63
2021/01/28 03:50:38;;;;;;;;;;;13.40;99.90;;;12.73;100.00;101566.03;5052824;28;19952;-63
2021/01/28 03:53:07;;;;;;;;;;;13.40;99.90;;;12.76;100.00;101560.84;5052444;28;20400;-62
2021/01/28 03:55:34;;;;;;;;;;;13.40;99.90;;;12.76;100.00;101555.41;5052407;28;19952;-63
2021/01/28 03:58:01;;;;;;;;;;;13.40;99.90;;;12.77;100.00;101551.56;5052237;28;20298;-63
2021/01/28 04:00:30;;;;;;;;;;;13.40;99.90;;;12.75;100.00;101567.34;5052627;28;19932;-62
2021/01/28 04:02:58;;;;;;;;;;;13.40;99.90;;;12.71;100.00;101555.44;5052374;28;19929;-63
2021/01/28 04:05:26;;;;;;;;;;;13.40;99.90;;;12.65;100.00;101553.06;5051501;28;19925;-63
2021/01/28 04:07:53;;;;;;;;;;;13.30;99.90;;;12.62;100.00;101549.00;5051772;28;19929;-62
2021/01/28 04:10:24;;;;;;;;;;;13.30;99.90;;;12.62;100.00;101549.00;5052621;28;19925;-63
2021/01/28 04:12:51;;;;;;;;;;;13.30;99.90;;;12.64;100.00;101546.03;5052182;28;20278;-62
2021/01/28 04:15:18;;;;;;;;;;;13.30;99.90;;;12.58;100.00;101537.13;5052121;28;20294;-63
2021/01/28 04:17:46;;;;;;;;;;;13.30;99.90;;;12.54;100.00;101534.16;5051857;28;20351;-63
2021/01/28 04:20:16;;;;;;;;;;;13.30;99.90;;;12.53;100.00;101534.44;5052447;28;19932;-63
2021/01/28 04:22:43;;;;;;;;;;;13.20;99.90;;;12.50;100.00;101524.16;5052315;28;19929;-63
2021/01/28 04:25:15;;;;;;;;;;;13.20;99.90;;;12.46;100.00;101528.56;5051914;28;19925;-63
2021/01/28 04:27:43;;;;;;;;;;;13.20;99.90;;;12.46;100.00;101515.78;5051822;28;20302;-63
2021/01/28 04:30:13;;;;;;;;;;;13.10;99.90;;;12.51;100.00;101514.94;5052421;28;19925;-62
2021/01/28 04:32:40;;;;;;;;;;;13.20;99.90;;;12.50;100.00;101518.72;5052070;28;20378;-63
2021/01/28 04:35:09;;;;;;;;;;;13.20;99.90;;;12.44;100.00;101517.97;5051577;28;20320;-63
2021/01/28 04:37:36;;;;;;;;;;;13.10;99.90;;;12.49;100.00;101507.06;5051647;28;20051;-63
2021/01/28 04:40:04;;;;;;;;;;;13.20;99.90;;;12.45;100.00;101506.03;5052204;28;20386;-63
2021/01/28 04:42:39;;;;;;;;;;;13.10;99.90;;;12.46;100.00;101504.94;5052273;28;20322;-63
2021/01/28 04:45:09;;;;;;;;;;;13.20;99.90;;;12.35;100.00;101499.88;5051630;28;19994;-63
2021/01/28 04:47:36;;;;;;;;;;;13.10;99.90;;;12.29;100.00;101507.25;5051478;28;19924;-63
2021/01/28 04:50:06;;;;;;;;;;;13.00;99.90;;;12.29;100.00;101490.19;5052196;28;20369;-63
2021/01/28 04:52:38;;;;;;;;;;;13.00;99.90;;;12.27;100.00;101497.78;5051837;28;19932;-62
2021/01/28 04:55:08;;;;;;;;;;;13.00;99.90;;;12.25;100.00;101495.34;5051955;28;19932;-63
2021/01/28 04:57:35;;;;;;;;;;;12.90;99.90;;;12.28;100.00;101485.88;5051553;28;19929;-62
2021/01/28 05:00:05;;;;;;;;;;;13.00;99.90;;;12.30;100.00;101476.34;5051980;28;20617;-63
2021/01/28 05:02:33;;;;;;;;;;;13.00;99.90;;;12.31;100.00;101474.44;5051657;28;19929;-63
2021/01/28 05:05:06;;;;;;;;;;;13.00;99.90;;;12.35;100.00;101479.00;5051669;28;20290;-63
2021/01/28 05:07:35;;;;;;;;;;;13.00;99.90;;;12.34;100.00;101468.47;5051348;28;19925;-62
2021/01/28 05:10:07;;;;;;;;;;;13.00;99.90;;;12.30;100.00;101464.69;5051882;28;19925;-63
2021/01/28 05:12:34;;;;;;;;;;;13.00;99.90;;;12.26;100.00;101460.91;5051683;28;20401;-63
2021/01/28 05:15:14;;;;;;;;;;;12.90;99.90;;;12.22;100.00;101465.31;5051613;28;19948;-63
2021/01/28 05:17:43;;;;;;;;;;;12.90;99.90;;;12.23;100.00;101461.50;5053809;28;19931;-62
2021/01/28 05:20:15;;;;;;;;;;;12.90;99.90;;;12.24;100.00;101463.13;5055666;28;19925;-63
2021/01/28 05:22:45;;;;;;;;;;;12.90;99.90;;;12.24;100.00;101465.81;5055421;28;19925;-62
2021/01/28 05:25:17;;;;;;;;;;;12.90;99.90;;;12.30;100.00;101476.34;5055533;28;19935;-63
2021/01/28 05:27:44;;;;;;;;;;;13.00;99.90;;;12.26;100.00;101472.56;5055007;28;19928;-62
2021/01/28 05:30:16;;;;;;;;;;;12.90;99.90;;;12.28;100.00;101472.31;5055557;28;19925;-62
2021/01/28 05:32:47;;;;;;;;;;;13.00;99.90;;;12.26;100.00;101474.47;5055306;28;19975;-62
2021/01/28 05:35:32;;;;;;;;;;;12.90;99.90;;;12.18;100.00;101478.63;5055301;28;19929;-62
2021/01/28 05:38:09;;;;;;;;;;;12.90;99.90;;;12.09;100.00;101479.50;5054832;28;19924;-63
2021/01/28 05:40:36;;;;;;;;;;;12.80;99.90;;;12.11;100.00;101483.56;5055361;28;20623;-63
2021/01/28 05:43:22;;;;;;;;;;;12.80;99.90;;;12.08;100.00;101481.41;5055271;28;19929;-63
2021/01/28 05:45:49;;;;;;;;;;;12.80;99.90;;;12.09;100.00;101491.16;5054712;28;19928;-63
2021/01/28 05:48:30;;;;;;;;;;;12.80;99.90;;;12.17;100.00;101495.16;5054929;28;19935;-64
2021/01/28 05:51:10;;;;;;;;;;;12.80;99.90;;;12.22;100.00;101506.75;5055130;28;19929;-64
2021/01/28 05:53:37;;;;;;;;;;;12.80;99.90;;;12.25;100.00;101513.56;5054237;28;19928;-65
2021/01/28 05:56:11;;;;;;;;;;;12.90;99.90;;;12.25;100.00;101519.75;5054480;28;19924;-62
2021/01/28 05:58:43;;;;;;;;;;;12.90;99.90;;;12.27;100.00;101514.06;5054750;28;19924;-62
2021/01/28 06:01:18;;;;;;;;;;;12.90;99.90;;;12.28;100.00;101512.97;5055055;28;19925;-63
2021/01/28 06:04:03;;;;;;;;;;;12.90;99.90;;;12.24;100.00;101512.75;5054094;28;19925;-63
2021/01/28 06:06:55;;;;;;;;;;;12.80;99.90;;;12.23;100.00;101513.81;5054259;28;19925;-64
2021/01/28 06:09:46;;;;;;;;;;;12.80;99.90;;;12.23;100.00;101513.81;5054680;28;19925;-63
2021/01/28 06:12:28;;;;;;;;;;;12.80;99.90;;;12.22;100.00;101508.69;5034762;28;19979;-64
2021/01/28 06:15:06;;;;;;;;;;;12.80;99.90;;;12.22;100.00;101506.75;5054169;28;19929;-64
2021/01/28 06:17:53;;;;;;;;;;;12.80;99.90;;;12.19;100.00;101507.34;5054094;28;19978;-63
2021/01/28 06:20:28;;;;;;;;;;;12.80;99.90;;;12.19;100.00;101499.19;5054246;28;19925;-63
2021/01/28 06:23:12;;;;;;;;;;;12.80;99.90;;;12.04;100.00;101491.19;5054384;28;19925;-62
2021/01/28 06:25:54;;;;;;;;;;;12.70;99.90;;;12.05;100.00;101503.66;5053963;28;20477;-63
2021/01/28 06:28:40;;;;;;;;;;;12.70;99.90;;;12.02;100.00;101507.75;5053572;28;20302;-63
2021/01/28 06:31:17;;;;;;;;;;;12.70;99.90;;;12.01;100.00;101514.25;5054270;28;19972;-63
2021/01/28 06:34:13;;;;;;;;;;;12.60;99.90;;;11.96;100.00;101502.66;5053638;28;19924;-63
2021/01/28 06:36:52;;;;;;;;;;;12.60;99.90;;;11.91;100.00;101497.28;5053729;28;19925;-63
2021/01/28 06:39:24;;;;;;;;;;;12.50;99.90;;;11.89;100.00;101507.56;5054171;28;19935;-63
2021/01/28 06:41:56;;;;;;;;;;;12.50;99.90;;;11.83;100.00;101501.38;5054180;28;19924;-63
2021/01/28 06:44:27;;;;;;;;;;;12.50;99.90;;;11.81;100.00;101503.56;5053945;28;19925;-63
2021/01/28 06:46:57;;;;;;;;;;;12.40;99.90;;;11.69;100.00;101492.22;5053632;28;20389;-62
2021/01/28 06:49:30;;;;;;;;;;;12.40;99.90;;;11.68;100.00;101500.63;5054091;28;19932;-63
2021/01/28 06:52:06;;;;;;;;;;;12.30;99.90;;;11.61;100.00;101494.72;5053732;28;20358;-62
2021/01/28 06:54:42;;;;;;;;;;;12.30;99.90;;;11.56;100.00;101498.25;5053598;28;19925;-63
2021/01/28 06:57:22;;;;;;;;;;;12.20;99.90;;;11.47;100.00;101503.47;5053536;28;19925;-62
2021/01/28 06:59:55;;;;;;;;;;;12.10;99.90;;;11.43;100.00;101501.56;5053589;28;19928;-62
2021/01/28 07:02:34;;;;;;;;;;;12.10;99.90;;;11.44;100.00;101495.06;5053704;28;20370;-63
2021/01/28 07:05:16;;;;;;;;;;;12.10;99.90;;;11.46;100.00;101493.72;5053240;28;19936;-63
2021/01/28 07:07:49;;;;;;;;;;;12.20;99.90;;;11.45;100.00;101491.28;5053266;28;19931;-63
2021/01/28 07:10:21;;;;;;;;;;;12.10;99.90;;;11.44;100.00;101489.66;5053276;28;19931;-63
2021/01/28 07:12:50;;;;;;;;;;;12.10;99.90;;;11.41;100.00;101490.22;5053402;28;20291;-63
2021/01/28 07:15:18;;;;;;;;;;;12.10;99.90;;;11.38;100.00;101496.19;5053003;28;19932;-63
2021/01/28 07:17:49;;;;;;;;;;;12.00;99.90;;;11.39;100.00;101495.13;5052817;28;19924;-63
2021/01/28 07:20:29;;;;;;;;;;;12.00;99.90;;;11.35;100.00;101497.56;5053163;28;19929;-63
2021/01/28 07:23:23;;;;;;;;;;;12.00;99.90;;;11.37;100.00;101489.97;5053161;28;19925;-63
2021/01/28 07:25:51;;;;;;;;;;;12.00;99.90;;;11.41;100.00;101495.63;5052771;28;19928;-63
2021/01/28 07:28:28;;;;;;;;;;;12.10;99.90;;;11.43;100.00;101499.69;5052830;28;19936;-64
2021/01/28 07:31:23;;;;;;;;;;;12.10;99.90;;;11.42;100.00;101499.97;5053178;28;19932;-65
2021/01/28 07:34:06;;;;;;;;;;;12.10;99.90;;;11.44;100.00;101501.31;5052636;28;19977;-63
2021/01/28 07:36:41;;;;;;;;;;;12.10;99.90;;;11.37;100.00;101505.41;5052518;28;19925;-65
2021/01/28 07:39:41;;;;;;;;;;;12.10;99.90;;;11.36;100.00;101506.50;5053344;28;19924;-62
2021/01/28 07:42:25;;;;;;;;;;;12.00;99.90;;;11.34;100.00;101500.53;5052779;28;19979;-64
2021/01/28 07:44:54;;;;;;;;;;;12.00;99.90;;;11.29;100.00;101498.69;5052413;28;19928;-63
2021/01/28 07:47:56;;;;;;;;;;;12.00;99.90;;;11.32;100.00;101508.94;5052505;28;19925;-64
2021/01/28 07:50:38;;;;;;;;;;;12.00;99.90;;;11.35;100.00;101507.59;5052940;28;19925;-65
2021/01/28 07:53:37;;;;;;;;;;;12.00;99.90;;;11.40;100.00;101507.56;5052579;28;19933;-62
2021/01/28 07:56:06;;;;;;;;;;;12.10;99.90;;;11.44;100.00;101506.72;5029351;28;20275;-63
2021/01/28 07:58:35;;;;;;;;;;;12.10;99.90;;;11.49;100.00;101503.97;5052557;28;20409;-62
2021/01/28 08:01:07;;;;;;;;;;;12.10;99.90;;;11.50;100.00;101515.63;5052785;28;19928;-63
2021/01/28 08:03:36;;;;;;;;;;;12.10;99.90;;;11.44;100.00;101516.75;5052359;28;19952;-63
2021/01/28 08:06:08;;;;;;;;;;;12.10;99.90;;;11.45;100.00;101523.78;5051773;28;19925;-63
2021/01/28 08:08:36;;;;;;;;;;;12.10;99.90;;;11.44;100.00;101524.88;5052574;28;19935;-62
2021/01/28 08:11:16;;;;;;;;;;;12.10;99.90;;;11.47;100.00;101521.59;5051706;28;20218;-63
2021/01/28 08:13:44;;;;;;;;;;;12.10;99.90;;;11.49;100.00;101514.00;5051905;28;19941;-63
2021/01/28 08:16:16;;;;;;;;;;;12.10;99.90;;;11.46;100.00;101509.97;5051759;28;19967;-62
2021/01/28 08:18:44;;;;;;;;;;;12.10;99.90;;;11.46;100.00;101509.97;5052395;28;20340;-62
2021/01/28 08:21:13;;;;;;;;;;;12.10;99.90;;;11.50;100.00;101504.81;5052316;28;20015;-63
2021/01/28 08:23:42;;;;;;;;;;;12.10;99.90;;;11.51;100.00;101515.38;5051972;28;19982;-63
2021/01/28 08:26:11;;;;;;;;;;;12.20;99.90;;;11.64;100.00;101524.78;5051548;28;19924;-63
2021/01/28 08:28:41;;;;;;;;;;;12.20;99.90;;;11.75;100.00;101537.22;5052285;28;19979;-63
2021/01/28 08:31:17;;;;;;;;;;;12.30;99.90;;;11.89;100.00;101538.19;5052402;28;19947;-63
2021/01/28 08:33:47;;;;;;;;;;;12.40;99.90;;;11.95;100.00;101533.53;5052036;28;20015;-63
2021/01/28 08:36:22;;;;;;;;;;;12.50;99.90;;;12.12;100.00;101541.31;5051630;28;20373;-63
2021/01/28 08:38:49;;;;;;;;;;;12.60;99.90;;;12.16;100.00;101547.78;5052181;28;19928;-63
2021/01/28 08:41:20;;;;;;;;;;;12.70;99.90;;;12.07;100.00;101541.34;5052144;28;20377;-63
2021/01/28 08:43:58;;;;;;;;;;;12.60;99.90;;;11.94;100.00;101550.91;5051830;28;20011;-63
2021/01/28 08:46:26;;;;;;;;;;;12.50;99.90;;;11.98;100.00;101555.47;5051639;28;19929;-62
2021/01/28 08:49:03;;;;;;;;;;;12.60;99.90;;;12.05;100.00;101555.97;5052126;28;19929;-62
2021/01/28 08:51:30;;;;;;;;;;;12.60;99.90;;;12.13;100.00;101556.47;5052304;28;19924;-65
2021/01/28 08:54:00;;;;;;;;;;;12.70;99.90;;;12.20;100.00;101565.09;5055708;28;20062;-63
2021/01/28 08:56:31;;;;;;;;;;;12.80;99.90;;;12.38;100.00;101562.50;5055687;28;19925;-64
2021/01/28 08:59:02;;;;;;;;;;;12.90;99.90;;;12.44;100.00;101566.81;5056221;28;19932;-63
2021/01/28 09:01:30;;;;;;;;;;;13.00;99.90;;;12.44;100.00;101563.28;5056147;28;19932;-63
2021/01/28 09:04:03;;;;;;;;;;;12.90;99.90;;;12.42;100.00;101570.91;5055349;28;19939;-62
2021/01/28 09:06:39;;;;;;;;;;;13.00;99.90;;;12.34;100.00;101569.59;5055447;28;19924;-62
2021/01/28 09:09:15;;;;;;;;;;;12.90;99.90;;;12.33;100.00;101567.16;5055996;28;20027;-62
2021/01/28 09:11:43;;;;;;;;;;;12.90;99.90;;;12.62;100.00;101576.13;5055792;28;19929;-63
2021/01/28 09:14:30;;;;;;;;;;;13.10;99.90;;;12.70;100.00;101580.97;5055393;28;20003;-63
2021/01/28 09:17:00;;;;;;;;;;;13.20;99.90;;;12.85;100.00;101586.25;5055499;28;19924;-62
2021/01/28 09:19:28;;;;;;;;;;;13.30;99.90;;;12.73;100.00;101577.69;5055911;28;19936;-63
2021/01/28 09:21:59;;;;;;;;;;;13.30;99.90;;;12.65;100.00;101589.13;5055606;28;19932;-62
2021/01/28 09:24:35;;;;;;;;;;;13.20;99.90;;;12.78;100.00;101577.63;5055176;28;19931;-63
2021/01/28 09:27:29;;;;;;;;;;;13.20;99.90;;;12.84;100.00;101583.81;5055109;28;19929;-63
2021/01/28 09:30:07;;;;;;;;;;;13.30;99.90;;;12.81;100.00;101585.19;5054026;28;19929;-64
2021/01/28 09:32:35;;;;;;;;;;;13.30;99.90;;;12.79;100.00;101576.53;5055193;28;20378;-63
2021/01/28 09:35:14;;;;;;;;;;;13.40;99.90;;;12.86;100.00;101587.03;5054994;28;19972;-63
2021/01/28 09:37:44;;;;;;;;;;;13.40;99.90;;;12.95;100.00;101588.84;5054962;28;19932;-63
2021/01/28 09:40:20;;;;;;;;;;;13.50;99.90;;;13.02;100.00;101592.03;5055868;28;19932;-63
2021/01/28 09:42:47;;;;;;;;;;;13.50;99.90;;;13.05;100.00;101586.03;5055091;28;20284;-63
2021/01/28 09:45:22;;;;;;;;;;;13.60;99.90;;;13.18;100.00;101591.91;5054714;28;19929;-63
2021/01/28 09:47:51;;;;;;;;;;;13.60;99.90;;;13.16;100.00;101596.84;5054687;28;19941;-62
2021/01/28 09:50:19;;;;;;;;;;;13.70;99.90;;;13.07;100.00;101597.41;5055280;28;19924;-62
2021/01/28 09:52:48;;;;;;;;;;;13.60;99.90;;;13.25;100.00;101595.09;5054785;28;19929;-63
2021/01/28 09:55:17;;;;;;;;;;;13.70;99.90;;;13.42;100.00;101598.16;5054447;28;19925;-62
2021/01/28 09:57:45;;;;;;;;;;;13.90;99.90;;;13.52;100.00;101604.31;5054431;28;19932;-63
2021/01/28 10:00:14;;;;;;;;;;;14.00;99.90;;;13.65;100.00;101600.03;5054945;28;19943;-62
2021/01/28 10:02:44;;;;;;;;;;;14.10;99.90;;;13.76;100.00;101598.84;5054229;28;19979;-62
2021/01/28 10:05:13;;;;;;;;;;;14.20;99.90;;;13.86;100.00;101608.75;5053506;28;19928;-64
2021/01/28 10:07:41;;;;;;;;;;;14.30;99.90;;;13.79;100.00;101606.41;5054348;28;20341;-65
2021/01/28 10:10:10;;;;;;;;;;;14.40;99.90;;;13.77;100.00;101607.78;5054726;28;19921;-65
2021/01/28 10:12:37;;;;;;;;;;;14.30;99.90;;;13.72;100.00;101616.00;5054302;28;19932;-65
2021/01/28 10:15:06;;;;;;;;;;;14.30;99.90;;;13.74;100.00;101611.09;5053851;28;19940;-64
2021/01/28 10:17:33;;;;;;;;;;;14.30;99.90;;;13.74;100.00;101619.25;5054099;28;19929;-64
2021/01/28 10:20:01;;;;;;;;;;;14.30;99.90;;;13.85;100.00;101607.13;5054640;28;19929;-65
2021/01/28 10:22:29;;;;;;;;;;;14.30;99.90;;;13.98;100.00;101600.97;5054506;28;19925;-64
2021/01/28 10:24:56;;;;;;;;;;;14.40;99.90;;;14.17;100.00;101605.31;5053628;28;19979;-64
2021/01/28 10:27:23;;;;;;;;;;;14.60;99.90;;;14.28;100.00;101610.59;5054060;28;19939;-64
2021/01/28 10:29:51;;;;;;;;;;;14.80;99.90;;;14.26;100.00;101615.53;5054293;28;19925;-64
2021/01/28 10:32:18;;;;;;;;;;;14.70;99.90;;;14.15;100.00;101609.44;5054318;28;19929;-64
2021/01/28 10:34:45;;;;;;;;;;;14.70;99.90;;;13.97;100.00;101613.75;5053604;28;19924;-63
2021/01/28 10:37:13;;;;;;;;;;;14.50;99.90;;;13.98;100.00;101611.84;5053816;28;19936;-63
2021/01/28 10:39:41;;;;;;;;;;;14.50;99.90;;;14.10;100.00;101615.72;5054190;28;19929;-62
2021/01/28 10:42:08;;;;;;;;;;;14.60;99.90;;;14.52;100.00;101622.22;5054084;28;19929;-63
2021/01/28 10:44:36;;;;;;;;;;;14.90;99.90;;;14.89;100.00;101613.19;5053636;28;19929;-63
2021/01/28 10:47:03;;;;;;;;;;;15.30;99.90;;;15.02;100.00;101621.38;5053489;28;20415;-63
2021/01/28 10:49:30;;;;;;;;;;;15.40;99.90;;;15.23;100.00;101613.63;5054279;28;19925;-65
2021/01/28 10:51:57;;;;;;;;;;;15.60;99.90;;;15.37;100.00;101624.53;5053748;28;19983;-63
2021/01/28 10:54:25;;;;;;;;;;;15.80;99.90;;;15.30;100.00;101624.94;5053432;28;19925;-63
2021/01/28 10:56:53;;;;;;;;;;;15.80;99.90;;;15.28;100.00;101636.16;5053346;28;19933;-63
2021/01/28 10:59:20;;;;;;;;;;;15.90;99.90;;;15.28;100.00;101641.59;5054052;28;20451;-63
2021/01/28 11:01:48;;;;;;;;;;;15.90;99.90;;;15.33;100.00;101635.22;5053583;28;19982;-63
2021/01/28 11:04:15;;;;;;;;;;;15.90;99.90;;;15.34;100.00;101639.59;5053280;28;20413;-62
2021/01/28 11:06:42;;;;;;;;;;;15.90;99.90;;;15.03;100.00;101636.59;5053082;28;19925;-63
2021/01/28 11:09:09;;;;;;;;;;;15.60;99.90;;;15.11;100.00;101635.91;5053724;28;19925;-63
2021/01/28 11:11:37;;;;;;;;;;;15.70;99.90;;;14.99;100.00;101635.56;5053503;28;19925;-63
2021/01/28 11:14:05;;;;;;;;;;;15.50;99.90;;;14.84;100.00;101638.56;5052689;28;19936;-63
2021/01/28 11:16:34;;;;;;;;;;;15.50;99.90;;;14.85;100.00;101639.38;5052783;28;20371;-63
2021/01/28 11:19:03;;;;;;;;;;;15.40;99.90;;;14.91;100.00;101639.00;5053472;28;19929;-63